createdAt,value
2017-12-05T00:00:37.203Z,94.70
2017-12-05T00:03:05.256Z,94.50
2017-12-05T00:05:34.055Z,94.50
2017-12-05T00:08:02.951Z,94.60
2017-12-05T00:10:31.819Z,94.70
2017-12-05T00:12:59.986Z,94.70
2017-12-05T00:15:28.199Z,94.50
2017-12-05T00:17:57.007Z,94.40
2017-12-05T00:20:25.035Z,94.40
2017-12-05T00:22:53.214Z,94.30
2017-12-05T00:25:21.258Z,94.00
2017-12-05T00:27:49.302Z,93.90
2017-12-05T00:30:17.555Z,93.80
2017-12-05T00:32:46.342Z,93.70
2017-12-05T00:35:15.199Z,93.70
2017-12-05T00:37:43.375Z,94.10
2017-12-05T00:40:11.406Z,93.60
2017-12-05T00:42:39.491Z,93.70
2017-12-05T00:45:07.698Z,93.60
2017-12-05T00:47:35.966Z,93.50
2017-12-05T00:50:04.131Z,93.70
2017-12-05T00:52:32.311Z,93.80
2017-12-05T00:55:00.361Z,93.80
2017-12-05T00:57:28.435Z,94.00
2017-12-05T00:59:56.747Z,94.20
2017-12-05T01:02:24.808Z,94.30
2017-12-05T01:04:52.863Z,94.20
2017-12-05T01:07:21.028Z,94.10
2017-12-05T01:09:49.075Z,94.00
2017-12-05T01:12:17.860Z,94.00
2017-12-05T01:14:46.767Z,93.80
2017-12-05T01:17:14.778Z,93.80
2017-12-05T01:19:42.799Z,93.80
2017-12-05T01:22:11.732Z,93.80
2017-12-05T01:24:39.818Z,93.80
2017-12-05T01:27:07.835Z,93.60
2017-12-05T01:29:36.718Z,93.70
2017-12-05T01:32:05.468Z,93.80
2017-12-05T01:34:33.479Z,93.80
2017-12-05T01:37:02.355Z,94.00
2017-12-05T01:39:30.407Z,93.90
2017-12-05T01:41:58.438Z,94.00
2017-12-05T01:44:26.575Z,94.10
2017-12-05T01:46:54.714Z,94.30
2017-12-05T01:49:22.772Z,94.40
2017-12-05T01:51:50.966Z,94.40
2017-12-05T01:54:19.147Z,94.60
2017-12-05T01:56:47.187Z,94.60
2017-12-05T01:59:15.635Z,94.50
2017-12-05T02:01:43.864Z,94.40
2017-12-05T02:04:12.082Z,94.20
2017-12-05T02:06:40.400Z,94.10
2017-12-05T02:09:08.579Z,94.10
2017-12-05T02:11:36.611Z,94.20
2017-12-05T02:14:04.846Z,94.10
2017-12-05T02:16:32.911Z,93.80
2017-12-05T02:19:01.095Z,93.70
2017-12-05T02:21:29.371Z,93.90
2017-12-05T02:23:57.382Z,93.80
2017-12-05T02:26:25.532Z,93.80
2017-12-05T02:28:53.695Z,93.70
2017-12-05T02:31:21.752Z,93.70
2017-12-05T02:33:49.768Z,93.40
2017-12-05T02:36:17.915Z,93.50
2017-12-05T02:38:45.976Z,93.30
2017-12-05T02:41:14.028Z,93.30
2017-12-05T02:43:42.347Z,93.20
2017-12-05T02:46:10.548Z,93.00
2017-12-05T02:48:38.676Z,92.90
2017-12-05T02:51:06.982Z,92.90
2017-12-05T02:53:35.104Z,92.90
2017-12-05T02:56:03.386Z,92.90
2017-12-05T02:58:31.678Z,92.90
2017-12-05T03:00:59.973Z,93.10
2017-12-05T03:03:28.227Z,93.10
2017-12-05T03:05:56.524Z,93.00
2017-12-05T03:08:24.618Z,93.00
2017-12-05T03:10:52.721Z,93.00
2017-12-05T03:13:21.739Z,92.80
2017-12-05T03:15:49.827Z,92.70
2017-12-05T03:18:17.903Z,92.90
2017-12-05T03:20:46.211Z,92.80
2017-12-05T03:23:14.311Z,92.60
2017-12-05T03:25:43.111Z,92.10
2017-12-05T03:28:11.995Z,91.90
2017-12-05T03:30:40.771Z,91.20
2017-12-05T03:33:08.795Z,91.10
2017-12-05T03:35:36.934Z,89.30
2017-12-05T03:38:05.702Z,84.50
2017-12-05T03:40:33.782Z,84.40
2017-12-05T03:43:01.968Z,82.90
2017-12-05T03:45:30.768Z,78.50
2017-12-05T03:47:59.519Z,75.90
2017-12-05T03:50:27.835Z,75.80
2017-12-05T03:52:56.768Z,74.50
2017-12-05T03:55:24.843Z,74.50
2017-12-05T03:57:53.007Z,73.50
2017-12-05T04:00:21.027Z,73.40
2017-12-05T04:02:49.084Z,74.00
2017-12-05T04:05:17.402Z,76.60
2017-12-05T04:07:46.203Z,79.70
2017-12-05T04:10:14.251Z,79.70
2017-12-05T04:12:43.143Z,80.90
2017-12-05T04:15:11.912Z,80.20
2017-12-05T04:17:39.922Z,80.20
2017-12-05T04:20:08.802Z,81.10
2017-12-05T04:22:37.569Z,80.70
2017-12-05T04:25:05.628Z,80.70
2017-12-05T04:27:33.766Z,79.00
2017-12-05T04:30:01.783Z,78.80
2017-12-05T04:32:29.891Z,78.70
2017-12-05T04:34:58.783Z,78.60
2017-12-05T04:37:27.579Z,77.60
2017-12-05T04:39:56.362Z,77.20
2017-12-05T04:42:25.251Z,77.20
2017-12-05T04:44:54.039Z,77.00
2017-12-05T04:47:22.916Z,77.70
2017-12-05T04:49:51.826Z,77.20
2017-12-05T04:52:20.791Z,76.90
2017-12-05T04:54:48.967Z,76.90
2017-12-05T04:57:17.275Z,76.40
2017-12-05T04:59:46.164Z,75.90
2017-12-05T05:02:15.591Z,75.20
2017-12-05T05:04:43.902Z,75.20
2017-12-05T05:07:12.234Z,75.00
2017-12-05T05:09:41.224Z,73.80
2017-12-05T05:12:10.872Z,74.60
2017-12-05T05:14:38.935Z,74.60
2017-12-05T05:17:07.140Z,74.80
2017-12-05T05:19:35.406Z,74.70
2017-12-05T05:22:03.615Z,75.60
2017-12-05T05:24:31.645Z,74.70
2017-12-05T05:26:59.902Z,74.10
2017-12-05T05:29:28.079Z,74.10
2017-12-05T05:31:56.139Z,73.80
2017-12-05T05:34:25.104Z,73.50
2017-12-05T05:36:53.167Z,73.50
2017-12-05T05:39:21.359Z,73.20
2017-12-05T05:41:49.663Z,73.10
2017-12-05T05:44:17.720Z,72.80
2017-12-05T05:46:46.524Z,73.60
2017-12-05T05:49:15.699Z,74.00
2017-12-05T05:51:43.776Z,74.00
2017-12-05T05:54:12.532Z,73.70
2017-12-05T05:56:40.747Z,73.70
2017-12-05T05:59:09.523Z,71.80
2017-12-05T06:01:37.552Z,71.80
2017-12-05T06:04:05.724Z,72.20
2017-12-05T06:06:33.755Z,71.60
2017-12-05T06:09:02.703Z,71.50
2017-12-05T06:11:30.832Z,71.60
2017-12-05T06:13:59.623Z,71.30
2017-12-05T06:16:28.419Z,71.50
2017-12-05T06:18:56.647Z,71.50
2017-12-05T06:21:24.700Z,72.00
2017-12-05T06:23:52.710Z,71.50
2017-12-05T06:26:22.023Z,71.30
2017-12-05T06:28:50.783Z,70.00
2017-12-05T06:31:18.795Z,70.10
2017-12-05T06:33:47.691Z,70.30
2017-12-05T06:36:16.454Z,70.60
2017-12-05T06:38:44.486Z,70.60
2017-12-05T06:41:12.610Z,70.90
2017-12-05T06:43:41.409Z,70.70
2017-12-05T06:46:09.447Z,70.70
2017-12-05T06:48:37.602Z,71.00
2017-12-05T06:51:05.819Z,70.00
2017-12-05T06:53:34.779Z,70.30
2017-12-05T06:56:03.128Z,70.40
2017-12-05T06:58:31.504Z,70.70
2017-12-05T07:00:59.764Z,70.20
2017-12-05T07:03:28.907Z,70.30
2017-12-05T07:05:57.063Z,70.30
2017-12-05T07:08:25.135Z,70.70
2017-12-05T07:10:53.590Z,72.00
2017-12-05T07:13:22.607Z,70.70
2017-12-05T07:15:50.706Z,70.70
2017-12-05T07:18:18.980Z,70.10
2017-12-05T07:20:47.083Z,70.20
2017-12-05T07:23:15.184Z,70.70
2017-12-05T07:25:44.177Z,70.50
2017-12-05T07:28:13.179Z,70.60
2017-12-05T07:30:42.107Z,70.10
2017-12-05T07:33:10.343Z,70.90
2017-12-05T07:35:38.628Z,69.90
2017-12-05T07:38:06.736Z,69.30
2017-12-05T07:40:35.031Z,69.50
2017-12-05T07:43:03.203Z,70.10
2017-12-05T07:45:31.504Z,68.40
2017-12-05T07:47:59.735Z,69.60
2017-12-05T07:50:27.981Z,69.50
2017-12-05T07:52:56.795Z,67.20
2017-12-05T07:55:24.987Z,67.10
2017-12-05T07:57:53.051Z,67.50
2017-12-05T08:00:21.195Z,69.10
2017-12-05T08:02:50.112Z,68.30
2017-12-05T08:05:18.271Z,68.30
2017-12-05T08:07:46.523Z,68.00
2017-12-05T08:10:15.466Z,67.30
2017-12-05T08:12:43.834Z,67.30
2017-12-05T08:15:11.903Z,67.60
2017-12-05T08:17:40.237Z,67.30
2017-12-05T08:20:08.383Z,67.40
2017-12-05T08:22:36.608Z,66.80
2017-12-05T08:25:05.631Z,67.60
2017-12-05T08:27:33.771Z,67.60
2017-12-05T08:30:02.655Z,67.00
2017-12-05T08:32:30.847Z,66.90
2017-12-05T08:34:59.767Z,67.20
2017-12-05T08:37:28.123Z,67.20
2017-12-05T08:39:57.167Z,65.70
2017-12-05T08:42:25.459Z,65.70
2017-12-05T08:44:53.723Z,66.00
2017-12-05T08:47:21.983Z,66.70
2017-12-05T08:49:50.223Z,67.00
2017-12-05T08:52:18.406Z,66.90
2017-12-05T08:54:47.492Z,65.10
2017-12-05T08:57:16.354Z,64.90
2017-12-05T08:59:44.467Z,64.90
2017-12-05T09:02:13.531Z,62.90
2017-12-05T09:04:41.613Z,62.90
2017-12-05T09:07:09.915Z,63.70
2017-12-05T09:09:38.859Z,63.00
2017-12-05T09:12:06.950Z,63.00
2017-12-05T09:14:35.354Z,62.40
2017-12-05T09:17:04.493Z,62.50
2017-12-05T09:19:32.779Z,63.30
2017-12-05T09:22:00.903Z,62.20
2017-12-05T09:24:29.884Z,63.10
2017-12-05T09:26:58.113Z,63.10
2017-12-05T09:29:26.323Z,63.00
2017-12-05T09:31:54.663Z,62.90
2017-12-05T09:34:22.911Z,62.90
2017-12-05T09:36:51.876Z,62.50
2017-12-05T09:39:20.143Z,62.60
2017-12-05T09:41:48.386Z,63.30
2017-12-05T09:44:16.568Z,63.10
2017-12-05T09:46:44.839Z,63.90
2017-12-05T09:49:13.055Z,63.40
2017-12-05T09:51:41.247Z,63.40
2017-12-05T09:54:09.596Z,62.80
2017-12-05T09:56:37.715Z,63.70
2017-12-05T09:59:06.654Z,64.30
2017-12-05T10:01:35.092Z,64.30
2017-12-05T10:04:04.084Z,63.90
2017-12-05T10:06:33.135Z,63.50
2017-12-05T10:09:01.370Z,63.50
2017-12-05T10:11:29.511Z,62.60
2017-12-05T10:13:57.645Z,62.30
2017-12-05T10:16:26.067Z,63.40
2017-12-05T10:18:54.250Z,64.00
2017-12-05T10:21:23.164Z,65.70
2017-12-05T10:23:52.231Z,66.40
2017-12-05T10:26:20.323Z,65.60
2017-12-05T10:28:49.312Z,66.20
2017-12-05T10:31:18.404Z,66.80
2017-12-05T10:33:47.294Z,67.60
2017-12-05T10:36:15.551Z,67.60
2017-12-05T10:38:43.839Z,66.50
2017-12-05T10:41:11.987Z,66.20
2017-12-05T10:43:40.251Z,66.20
2017-12-05T10:46:08.537Z,65.70
2017-12-05T10:48:36.724Z,65.90
2017-12-05T10:51:04.939Z,65.80
2017-12-05T10:53:33.959Z,65.50
2017-12-05T10:56:02.242Z,65.40
2017-12-05T10:58:30.314Z,65.30
2017-12-05T11:00:58.510Z,65.40
2017-12-05T11:03:26.672Z,64.40
2017-12-05T11:05:54.756Z,64.30
2017-12-05T11:08:22.946Z,64.40
2017-12-05T11:10:51.363Z,64.90
2017-12-05T11:13:20.176Z,64.60
2017-12-05T11:15:48.395Z,64.60
2017-12-05T11:18:16.558Z,65.50
2017-12-05T11:20:44.771Z,65.70
2017-12-05T11:23:13.094Z,65.00
2017-12-05T11:25:41.295Z,65.70
2017-12-05T11:28:09.636Z,64.40
2017-12-05T11:30:37.931Z,62.90
2017-12-05T11:33:06.083Z,75.60
2017-12-05T11:35:34.924Z,73.80
2017-12-05T11:38:03.163Z,73.60
2017-12-05T11:40:31.179Z,68.60
2017-12-05T11:42:59.279Z,76.30
2017-12-05T11:45:28.182Z,79.80
2017-12-05T11:47:57.010Z,79.10
2017-12-05T11:50:25.099Z,79.10
2017-12-05T12:05:59.330Z,77.50
2017-12-05T12:08:28.171Z,76.60
2017-12-05T12:10:56.186Z,76.20
2017-12-05T12:13:24.417Z,76.70
2017-12-05T12:15:52.450Z,77.40
2017-12-05T12:18:20.671Z,76.80
2017-12-05T12:20:48.880Z,77.30
2017-12-05T12:23:16.950Z,77.70
2017-12-05T12:25:45.050Z,78.00
2017-12-05T12:28:13.255Z,76.70
2017-12-05T12:30:41.275Z,76.50
2017-12-05T12:33:09.299Z,75.80
2017-12-05T12:35:38.147Z,74.50
2017-12-05T12:38:06.206Z,72.50
2017-12-05T12:40:34.353Z,70.50
2017-12-05T12:43:02.555Z,70.30
2017-12-05T12:45:30.656Z,68.70
2017-12-05T12:47:58.686Z,68.10
2017-12-05T12:50:26.819Z,66.90
2017-12-05T12:52:55.579Z,65.60
2017-12-05T12:55:23.727Z,65.60
2017-12-05T12:57:51.888Z,65.10
2017-12-05T13:00:19.913Z,65.20
2017-12-05T13:02:48.699Z,65.30
2017-12-05T13:05:16.835Z,65.30
2017-12-05T13:07:44.876Z,65.00
2017-12-05T13:10:12.942Z,63.90
2017-12-05T13:12:41.814Z,75.00
2017-12-05T13:15:09.855Z,75.00
2017-12-05T13:17:37.919Z,77.90
2017-12-05T13:20:06.183Z,81.00
2017-12-05T13:22:34.276Z,82.50
2017-12-05T13:25:02.349Z,83.80
2017-12-05T13:27:30.559Z,84.90
2017-12-05T13:29:59.363Z,84.60
2017-12-05T13:32:28.176Z,84.40
2017-12-05T13:34:56.352Z,85.20
2017-12-05T13:37:24.390Z,84.10
2017-12-05T13:39:53.168Z,85.60
2017-12-05T13:42:21.330Z,85.40
2017-12-05T13:44:49.419Z,85.90
2017-12-05T13:47:17.492Z,85.90
2017-12-05T13:49:45.672Z,86.30
2017-12-05T13:52:13.759Z,86.40
2017-12-05T13:54:42.539Z,83.80
2017-12-05T13:57:11.589Z,83.80
2017-12-05T13:59:39.780Z,83.80
2017-12-05T14:02:07.874Z,84.00
2017-12-05T14:04:36.130Z,83.90
2017-12-05T14:07:04.531Z,83.50
2017-12-05T14:09:32.584Z,83.10
2017-12-05T14:12:00.847Z,83.10
2017-12-05T14:14:29.060Z,83.40
2017-12-05T14:16:57.123Z,83.50
2017-12-05T14:19:25.971Z,83.60
2017-12-05T14:21:54.183Z,83.60
2017-12-05T14:24:22.370Z,83.10
2017-12-05T14:26:50.609Z,83.50
2017-12-05T14:29:18.679Z,84.20
2017-12-05T14:31:46.756Z,85.10
2017-12-05T14:34:15.806Z,85.40
2017-12-05T14:36:45.024Z,85.60
2017-12-05T14:39:13.063Z,85.50
2017-12-05T14:41:41.292Z,85.60
2017-12-05T14:44:09.366Z,85.60
2017-12-05T14:46:37.435Z,85.50
2017-12-05T14:49:05.672Z,85.10
2017-12-05T14:51:34.515Z,85.00
2017-12-05T14:54:03.405Z,84.60
2017-12-05T14:56:31.830Z,84.70
2017-12-05T14:59:00.074Z,84.20
2017-12-05T15:01:28.156Z,84.40
2017-12-05T15:03:56.319Z,84.20
2017-12-05T15:06:24.488Z,84.40
2017-12-05T15:08:52.553Z,84.60
2017-12-05T15:11:20.751Z,84.40
2017-12-05T15:13:48.844Z,83.90
2017-12-05T15:16:16.927Z,83.80
2017-12-05T15:18:45.139Z,83.40
2017-12-05T15:21:13.220Z,83.20
2017-12-05T15:23:41.438Z,83.00
2017-12-05T15:26:09.651Z,83.10
2017-12-05T15:28:38.443Z,83.90
2017-12-05T15:31:07.282Z,84.30
2017-12-05T15:33:35.467Z,84.30
2017-12-05T15:36:03.735Z,84.80
2017-12-05T15:38:31.803Z,85.10
2017-12-05T15:41:00.008Z,85.50
2017-12-05T15:43:28.146Z,85.80
2017-12-05T15:45:56.217Z,86.00
2017-12-05T15:48:24.388Z,86.20
2017-12-05T15:50:52.456Z,86.30
2017-12-05T15:53:20.487Z,86.50
2017-12-05T15:55:49.417Z,86.60
2017-12-05T15:58:17.511Z,86.60
2017-12-05T16:00:45.640Z,86.60
2017-12-05T16:03:14.555Z,86.40
2017-12-05T16:05:42.682Z,86.50
2017-12-05T16:08:10.731Z,86.40
2017-12-05T16:10:38.883Z,86.60
2017-12-05T16:13:07.007Z,86.70
2017-12-05T16:15:35.134Z,86.60
2017-12-05T16:18:03.329Z,86.80
2017-12-05T16:20:31.555Z,86.60
2017-12-05T16:23:00.371Z,86.60
2017-12-05T16:25:28.572Z,86.70
2017-12-05T16:27:56.595Z,86.50
2017-12-05T16:30:25.764Z,87.00
2017-12-05T16:32:54.671Z,86.40
2017-12-05T16:35:23.527Z,86.80
2017-12-05T16:37:51.624Z,86.80
2017-12-05T16:40:19.827Z,87.00
2017-12-05T16:42:48.595Z,87.30
2017-12-05T16:45:17.406Z,88.00
2017-12-05T16:47:45.562Z,88.00
2017-12-05T16:50:14.476Z,90.30
2017-12-05T16:52:42.528Z,90.30
2017-12-05T16:55:11.464Z,91.20
2017-12-05T16:57:39.515Z,91.20
2017-12-05T17:00:07.816Z,91.10
2017-12-05T17:02:36.087Z,90.90
2017-12-05T17:05:04.222Z,90.00
2017-12-05T17:07:33.015Z,88.60
2017-12-05T17:10:01.963Z,88.60
2017-12-05T17:12:30.376Z,88.50
2017-12-05T17:14:58.860Z,88.30
2017-12-05T17:17:27.060Z,88.90
2017-12-05T17:19:55.912Z,89.00
2017-12-05T17:22:24.052Z,89.00
2017-12-05T17:24:52.232Z,89.10
2017-12-05T17:27:20.255Z,88.70
2017-12-05T17:29:49.047Z,88.60
2017-12-05T17:32:17.976Z,88.60
2017-12-05T17:34:46.051Z,88.60
2017-12-05T17:37:14.128Z,88.50
2017-12-05T17:39:42.328Z,88.80
2017-12-05T17:42:10.351Z,88.70
2017-12-05T17:44:39.130Z,89.30
2017-12-05T17:47:08.011Z,89.50
2017-12-05T17:49:38.909Z,89.50
2017-12-05T17:52:07.107Z,89.60
2017-12-05T17:54:35.300Z,89.50
2017-12-05T17:57:03.323Z,89.40
2017-12-05T17:59:31.403Z,89.30
2017-12-05T18:01:59.599Z,89.30
2017-12-05T18:04:27.714Z,89.30
2017-12-05T18:06:56.624Z,89.30
2017-12-05T18:09:24.895Z,89.30
2017-12-05T18:11:53.063Z,89.20
2017-12-05T18:14:22.115Z,88.80
2017-12-05T18:16:50.388Z,88.80
2017-12-05T18:19:18.667Z,88.90
2017-12-05T18:21:46.846Z,89.10
2017-12-05T18:24:15.136Z,89.40
2017-12-05T18:26:43.230Z,89.90
2017-12-05T18:29:12.184Z,90.20
2017-12-05T18:31:40.386Z,89.70
2017-12-05T18:34:08.591Z,90.10
2017-12-05T18:36:36.807Z,90.50
2017-12-05T18:39:05.172Z,91.40
2017-12-05T18:41:33.287Z,91.70
2017-12-05T18:44:01.492Z,91.70
2017-12-05T18:46:30.475Z,91.60
2017-12-05T18:48:59.355Z,91.00
2017-12-05T18:51:27.701Z,91.00
2017-12-05T18:53:56.164Z,90.80
2017-12-05T18:56:24.438Z,90.70
2017-12-05T18:58:52.576Z,90.50
2017-12-05T19:01:21.663Z,90.20
2017-12-05T19:03:49.898Z,90.20
2017-12-05T19:06:18.075Z,90.30
2017-12-05T19:08:46.516Z,90.80
2017-12-05T19:11:15.443Z,90.90
2017-12-05T19:13:43.667Z,90.90
2017-12-05T19:16:12.041Z,90.90
2017-12-05T19:18:40.476Z,90.60
2017-12-05T19:21:08.745Z,90.50
2017-12-05T19:23:37.139Z,90.60
2017-12-05T19:26:05.350Z,90.80
2017-12-05T19:28:33.531Z,90.90
2017-12-05T19:31:01.886Z,90.90
2017-12-05T19:33:30.254Z,90.80
2017-12-05T19:35:58.431Z,90.70
2017-12-05T19:38:26.686Z,90.70
2017-12-05T19:40:54.877Z,91.20
2017-12-05T19:43:23.076Z,91.80
2017-12-05T19:45:51.483Z,91.60
2017-12-05T19:48:19.747Z,91.40
2017-12-05T19:50:48.063Z,91.50
2017-12-05T19:53:16.415Z,91.80
2017-12-05T19:55:44.867Z,92.50
2017-12-05T19:58:13.132Z,93.50
2017-12-05T20:00:41.515Z,93.60
2017-12-05T20:03:09.579Z,93.80
2017-12-05T20:05:37.755Z,93.80
2017-12-05T20:08:05.943Z,94.10
2017-12-05T20:10:34.051Z,94.10
2017-12-05T20:13:02.144Z,94.40
2017-12-05T20:15:31.161Z,94.60
2017-12-05T20:17:59.387Z,94.60
2017-12-05T20:20:27.524Z,94.60
2017-12-05T20:22:55.902Z,94.80
2017-12-05T20:25:24.207Z,95.00
2017-12-05T20:27:52.491Z,95.20
2017-12-05T20:30:20.834Z,95.10
2017-12-05T20:32:49.016Z,94.80
2017-12-05T20:35:17.140Z,94.70
2017-12-05T20:37:45.548Z,94.80
2017-12-05T20:40:13.762Z,94.90
2017-12-05T20:42:42.029Z,94.80
2017-12-05T20:45:10.452Z,94.50
2017-12-05T20:47:38.728Z,94.10
2017-12-05T20:50:06.738Z,94.50
2017-12-05T20:52:34.879Z,95.30
2017-12-05T20:55:02.929Z,95.60
2017-12-05T20:57:31.186Z,95.50
2017-12-05T20:59:59.471Z,95.40
2017-12-05T21:02:27.516Z,95.40
2017-12-05T21:04:55.544Z,95.50
2017-12-05T21:07:23.676Z,95.60
2017-12-05T21:09:51.691Z,96.10
2017-12-05T21:12:19.695Z,96.50
2017-12-05T21:14:47.841Z,97.70
2017-12-05T21:17:15.887Z,98.90
2017-12-05T21:19:43.902Z,99.20
2017-12-05T21:22:12.815Z,99.70
2017-12-05T21:24:40.859Z,99.70
2017-12-05T21:27:09.780Z,99.90
2017-12-05T21:29:37.933Z,99.90
2017-12-05T21:32:06.687Z,99.90
2017-12-05T21:34:34.690Z,99.90
2017-12-05T21:37:03.570Z,99.70
2017-12-05T21:39:31.592Z,99.70
2017-12-05T21:41:59.644Z,99.40
2017-12-05T21:44:27.811Z,99.30
2017-12-05T21:46:56.558Z,98.80
2017-12-05T21:49:24.566Z,98.80
2017-12-05T21:51:53.474Z,98.10
2017-12-05T21:54:21.493Z,98.10
2017-12-05T21:56:49.502Z,97.40
2017-12-05T21:59:18.538Z,96.20
2017-12-05T22:01:46.550Z,96.20
2017-12-05T22:04:14.607Z,95.90
2017-12-05T22:06:42.742Z,96.00
2017-12-05T22:09:10.755Z,95.90
2017-12-05T22:11:38.787Z,96.20
2017-12-05T22:14:06.956Z,95.80
2017-12-05T22:16:35.003Z,95.90
2017-12-05T22:19:03.793Z,95.10
2017-12-05T22:21:32.801Z,95.10
2017-12-05T22:24:00.846Z,95.10
2017-12-05T22:26:28.885Z,94.70
2017-12-05T22:28:57.055Z,94.70
2017-12-05T22:31:25.115Z,94.70
2017-12-05T22:46:41.943Z,93.70
2017-12-05T22:49:09.968Z,93.90
2017-12-05T22:51:38.029Z,94.80
2017-12-05T22:54:06.943Z,95.30
2017-12-05T22:56:34.980Z,95.30
2017-12-05T22:59:03.754Z,95.90
2017-12-05T23:01:32.033Z,95.90
2017-12-05T23:04:00.083Z,96.00
2017-12-05T23:06:28.181Z,96.30
2017-12-05T23:08:57.107Z,96.50
2017-12-05T23:11:25.873Z,96.40
2017-12-05T23:13:53.919Z,96.40
2017-12-05T23:16:22.065Z,96.50
2017-12-05T23:18:50.137Z,96.10
2017-12-05T23:21:18.195Z,95.80
2017-12-05T23:23:46.343Z,95.40
2017-12-05T23:26:14.372Z,95.10
2017-12-05T23:28:42.411Z,95.10
2017-12-05T23:31:10.591Z,95.30
2017-12-05T23:33:38.625Z,95.00
2017-12-05T23:36:06.691Z,94.80
2017-12-05T23:38:34.985Z,94.40
2017-12-05T23:41:03.799Z,94.20
2017-12-05T23:43:32.225Z,94.20
2017-12-05T23:46:00.470Z,94.20
2017-12-05T23:48:28.526Z,93.90
2017-12-05T23:50:57.304Z,93.70
2017-12-05T23:53:26.347Z,93.70
2017-12-05T23:55:54.387Z,93.80
2017-12-05T23:58:22.407Z,93.90
